Time;durP1;ratioP1;P1;durP2;ratioP2;P2;SDS_P1;SDS_P2;PMS_P1;PMS_P2;Temp;Humidity;BMP_temperature;BMP_pressure;BME280_temperature;BME280_humidity;BME280_pressure;Samples;Min_cycle;Max_cycle;Signal;HPM_P1;HPM_P2
2021/06/08 00:00:06;;;;;;;;;;;15.40;60.80;;;17.69;50.10;102396.50;5035031;27;97102;-72
2021/06/08 00:02:42;;;;;;;;;;;15.30;60.70;;;17.65;50.34;102398.22;5033510;27;98011;-73
2021/06/08 00:05:11;;;;;;;;;;;15.20;60.70;;;17.68;50.42;102396.81;5032639;27;96955;-72
2021/06/08 00:07:40;;;;;;;;;;;15.20;60.80;;;17.61;50.05;102401.88;5050296;27;96962;-73
2021/06/08 00:10:09;;;;;;;;;;;15.20;60.80;;;17.55;50.13;102406.63;5033387;27;96856;-73
2021/06/08 00:12:38;;;;;;;;;;;15.20;60.80;;;17.47;50.23;102410.06;5050495;27;97087;-73
2021/06/08 00:15:08;;;;;;;;;;;15.10;60.80;;;17.43;50.44;102408.28;5037233;27;97946;-72
2021/06/08 00:17:37;;;;;;;;;;;15.10;60.80;;;17.41;50.61;102410.50;5046502;27;96863;-72
2021/06/08 00:20:09;;;;;;;;;;;15.00;60.80;;;17.42;51.02;102409.38;5033839;28;96828;-72
2021/06/08 00:22:37;;;;;;;;;;;15.00;60.90;;;17.41;50.62;102410.50;5033131;27;98202;-73
2021/06/08 00:25:07;;;;;;;;;;;15.00;61.00;;;17.39;50.84;102407.28;5029074;27;97615;-72
2021/06/08 00:27:38;;;;;;;;;;;14.90;61.00;;;17.35;50.79;102407.09;5046315;27;101216;-73
2021/06/08 00:30:07;;;;;;;;;;;14.90;61.00;;;17.33;50.01;102409.31;5013674;28;96942;-72
2021/06/08 00:32:35;;;;;;;;;;;14.80;61.00;;;17.30;50.82;102412.59;5033718;27;96901;-73
2021/06/08 00:35:06;;;;;;;;;;;14.80;61.00;;;17.29;50.66;102413.69;5046179;27;97741;-73
2021/06/08 00:37:35;;;;;;;;;;;14.80;61.00;;;17.23;50.73;102413.31;5027871;27;96831;-73
2021/06/08 00:40:06;;;;;;;;;;;14.70;61.00;;;17.20;50.34;102403.09;5032620;27;97500;-73
2021/06/08 00:42:36;;;;;;;;;;;14.70;61.10;;;17.18;50.65;102405.31;5032062;27;100807;-72
2021/06/08 00:45:09;;;;;;;;;;;14.70;61.20;;;17.18;50.36;102408.03;5030089;27;97708;-73
2021/06/08 00:47:37;;;;;;;;;;;14.60;61.30;;;17.03;50.07;102406.44;5011581;28;97014;-73
2021/06/08 00:50:08;;;;;;;;;;;14.60;61.30;;;16.93;51.09;102400.44;5030315;28;96839;-73
2021/06/08 00:52:36;;;;;;;;;;;14.60;61.30;;;16.91;50.17;102402.66;5029914;27;98159;-73
2021/06/08 00:55:05;;;;;;;;;;;14.50;61.20;;;16.85;51.40;102395.75;5013524;28;98191;-73
2021/06/08 00:57:33;;;;;;;;;;;14.50;61.30;;;16.85;50.91;102403.88;5029333;28;97079;-73
2021/06/08 01:00:06;;;;;;;;;;;14.40;61.30;;;16.74;51.26;102394.34;5016240;28;100027;-73
2021/06/08 01:02:36;;;;;;;;;;;14.40;61.30;;;16.71;51.53;102394.94;5033166;27;96984;-73
2021/06/08 01:05:07;;;;;;;;;;;14.40;61.30;;;16.66;50.75;102387.72;5032273;27;96847;-73
2021/06/08 01:07:36;;;;;;;;;;;14.30;61.30;;;16.72;50.60;102386.53;5024466;27;97446;-73
2021/06/08 01:10:09;;;;;;;;;;;14.30;61.30;;;16.77;50.47;102389.13;5033084;28;96649;-73
2021/06/08 01:12:38;;;;;;;;;;;14.30;61.30;;;16.75;51.06;102391.34;5046336;27;97133;-73
2021/06/08 01:15:08;;;;;;;;;;;14.20;61.40;;;16.70;50.08;102390.66;5027730;27;127256;-73
2021/06/08 01:17:37;;;;;;;;;;;14.20;61.40;;;16.65;50.61;102390.75;5030542;27;97075;-73
2021/06/08 01:20:09;;;;;;;;;;;14.20;61.40;;;16.62;50.85;102397.56;5030589;28;96747;-73
2021/06/08 01:22:39;;;;;;;;;;;14.20;61.40;;;16.59;51.28;102392.75;5040772;27;96871;-73
2021/06/08 01:25:08;;;;;;;;;;;14.10;61.40;;;16.55;50.74;102382.84;5030330;28;97072;-73
2021/06/08 01:27:37;;;;;;;;;;;14.10;61.40;;;16.50;51.10;102393.75;5031288;28;96837;-73
2021/06/08 01:30:08;;;;;;;;;;;14.10;61.50;;;16.51;50.47;102401.56;5043272;27;96879;-73
2021/06/08 01:32:39;;;;;;;;;;;14.10;61.50;;;16.46;50.83;102398.16;5026856;27;97902;-73
2021/06/08 01:35:10;;;;;;;;;;;14.00;61.50;;;16.45;50.71;102396.56;5029916;27;96865;-73
2021/06/08 01:37:40;;;;;;;;;;;14.00;61.60;;;16.43;50.95;102394.16;5012298;28;96669;-72
2021/06/08 01:40:10;;;;;;;;;;;14.00;61.50;;;16.40;51.14;102399.38;5027993;28;96928;-72
2021/06/08 01:42:40;;;;;;;;;;;13.90;61.50;;;16.39;50.63;102392.34;5027256;27;96840;-73
2021/06/08 01:45:12;;;;;;;;;;;13.90;61.60;;;16.36;51.28;102388.38;5031449;27;96942;-72
2021/06/08 01:47:40;;;;;;;;;;;13.90;61.60;;;16.38;50.08;102393.44;5028690;27;96807;-72
2021/06/08 01:50:10;;;;;;;;;;;13.80;61.60;;;16.36;50.25;102387.53;5045580;27;96946;-73
2021/06/08 01:52:45;;;;;;;;;;;13.80;61.70;;;16.34;50.38;102395.16;5029497;27;128443;-72
2021/06/08 01:55:21;;;;;;;;;;;13.70;61.60;;;16.31;50.43;102390.31;5009237;28;97101;-72
2021/06/08 01:57:53;;;;;;;;;;;13.70;61.60;;;16.27;51.03;102392.03;5042075;27;97350;-73
2021/06/08 02:00:28;;;;;;;;;;;13.70;61.70;;;16.25;50.93;102395.00;5046736;27;97720;-72
2021/06/08 02:03:08;;;;;;;;;;;13.60;61.60;;;16.25;50.03;102403.13;5029427;27;97959;-73
2021/06/08 02:05:42;;;;;;;;;;;13.60;61.70;;;16.21;49.87;102401.31;5030888;28;96985;-72
2021/06/08 02:08:23;;;;;;;;;;;13.60;61.60;;;16.17;50.05;102405.72;5045346;27;97509;-73
2021/06/08 02:10:57;;;;;;;;;;;13.60;61.70;;;16.18;50.71;102404.63;5012641;28;96913;-72
2021/06/08 02:13:34;;;;;;;;;;;13.50;61.70;;;16.17;50.68;102403.00;5023087;27;96966;-73
2021/06/08 02:16:10;;;;;;;;;;;13.50;62.40;;;16.08;51.15;102392.09;5029621;27;96906;-73
2021/06/08 02:18:41;;;;;;;;;;;13.50;61.80;;;16.04;50.96;102384.88;5046828;27;96822;-72
2021/06/08 02:21:11;;;;;;;;;;;13.50;61.80;;;16.06;50.93;102388.06;5011865;28;96971;-72
2021/06/08 02:23:43;;;;;;;;;;;13.50;61.80;;;16.15;50.65;102388.97;5030193;28;96987;-72
2021/06/08 02:26:11;;;;;;;;;;;13.40;61.80;;;16.07;50.46;102390.50;5029880;27;97197;-73
2021/06/08 02:28:41;;;;;;;;;;;13.40;61.80;;;16.08;50.74;102392.09;5048655;27;97965;-72
2021/06/08 02:31:10;;;;;;;;;;;13.40;61.80;;;16.11;49.84;102396.09;5031848;27;96909;-72
2021/06/08 02:33:40;;;;;;;;;;;13.40;61.80;;;16.07;49.98;102401.31;5032512;27;96856;-72
2021/06/08 02:36:09;;;;;;;;;;;13.40;61.90;;;16.04;50.50;102403.78;5016228;27;97710;-73
2021/06/08 02:38:39;;;;;;;;;;;13.30;61.80;;;16.02;50.09;102403.28;5031708;27;97629;-72
2021/06/08 02:41:08;;;;;;;;;;;13.30;61.80;;;16.02;50.05;102404.09;5035286;27;96935;-72
2021/06/08 02:43:38;;;;;;;;;;;13.30;61.80;;;16.01;49.67;102404.41;5031181;27;100644;-72
2021/06/08 02:46:09;;;;;;;;;;;13.30;61.90;;;15.98;50.72;102399.59;5033193;27;96949;-72
2021/06/08 02:48:40;;;;;;;;;;;13.30;61.90;;;15.97;50.37;102404.19;5033504;28;96837;-72
2021/06/08 02:51:09;;;;;;;;;;;13.30;61.90;;;15.94;50.81;102403.97;5034484;27;96839;-72
2021/06/08 02:53:39;;;;;;;;;;;13.30;62.00;;;16.02;49.89;102403.28;5032103;27;98250;-72
2021/06/08 02:56:08;;;;;;;;;;;13.30;62.00;;;15.99;50.63;102407.38;5033178;27;97657;-72
2021/06/08 02:58:37;;;;;;;;;;;13.30;62.00;;;16.00;50.67;102402.78;5031954;28;96860;-72
2021/06/08 03:01:06;;;;;;;;;;;13.30;62.00;;;15.98;50.24;102405.78;5048937;27;96901;-73
2021/06/08 03:03:37;;;;;;;;;;;13.20;61.90;;;16.00;50.45;102406.28;5033883;27;96789;-72
2021/06/08 03:06:09;;;;;;;;;;;13.30;62.00;;;15.98;50.62;102402.28;5045558;27;98584;-72
2021/06/08 03:08:43;;;;;;;;;;;13.20;61.90;;;15.92;49.78;102400.78;5033438;28;97139;-72
2021/06/08 03:11:21;;;;;;;;;;;13.20;62.00;;;15.93;50.82;102405.09;5029182;27;96768;-72
2021/06/08 03:13:50;;;;;;;;;;;13.20;62.10;;;16.00;50.11;102402.78;5032715;27;98208;-72
2021/06/08 03:16:20;;;;;;;;;;;13.20;62.10;;;15.97;50.61;102406.09;5044289;27;97612;-72
2021/06/08 03:18:52;;;;;;;;;;;13.20;62.10;;;15.95;49.77;102413.69;5030786;27;96946;-73
2021/06/08 03:21:27;;;;;;;;;;;13.20;62.10;;;15.96;50.03;102415.31;5033615;27;96917;-72
2021/06/08 03:24:00;;;;;;;;;;;13.20;62.10;;;16.00;49.60;102414.41;5040747;27;98361;-72
2021/06/08 03:26:35;;;;;;;;;;;13.10;62.10;;;15.99;49.44;102412.78;5034654;27;97870;-72
2021/06/08 03:29:08;;;;;;;;;;;13.20;62.20;;;16.06;49.50;102420.53;5046502;27;96981;-72
2021/06/08 03:31:39;;;;;;;;;;;13.10;62.10;;;16.13;50.34;102413.63;5046524;27;97570;-72
2021/06/08 03:34:10;;;;;;;;;;;13.20;62.20;;;16.13;50.20;102408.22;5048195;27;97892;-73
2021/06/08 03:36:39;;;;;;;;;;;13.20;62.20;;;15.97;49.78;102408.78;5034010;28;97747;-72
2021/06/08 03:39:08;;;;;;;;;;;13.20;62.20;;;16.05;50.30;102410.81;5047664;27;97509;-72
2021/06/08 03:41:37;;;;;;;;;;;13.20;62.20;;;16.05;49.87;102411.59;5034650;27;96847;-71
2021/06/08 03:44:06;;;;;;;;;;;13.20;62.30;;;16.12;49.77;102412.03;5031599;27;97174;-72
2021/06/08 03:46:35;;;;;;;;;;;13.10;62.20;;;16.08;50.36;102415.63;5032784;28;97769;-72
2021/06/08 03:49:03;;;;;;;;;;;13.10;62.20;;;15.96;50.43;102407.97;5031807;28;98000;-73
2021/06/08 03:51:32;;;;;;;;;;;13.20;62.20;;;16.00;50.18;102409.00;5048120;27;96931;-72
2021/06/08 03:54:01;;;;;;;;;;;13.20;62.30;;;16.05;50.04;102408.09;5031333;28;96850;-72
2021/06/08 03:56:34;;;;;;;;;;;13.20;62.20;;;16.12;50.42;102403.09;5032386;27;97665;-72
2021/06/08 03:59:04;;;;;;;;;;;13.20;62.30;;;16.15;50.20;102402.50;5028053;27;98238;-71
2021/06/08 04:01:33;;;;;;;;;;;13.20;62.30;;;16.21;50.13;102401.31;5033980;27;97225;-71
2021/06/08 04:04:03;;;;;;;;;;;13.20;62.30;;;16.21;50.13;102404.00;5027646;27;97051;-71
2021/06/08 04:06:32;;;;;;;;;;;13.20;62.30;;;16.18;50.00;102407.31;5015429;28;97587;-71
2021/06/08 04:09:04;;;;;;;;;;;13.20;62.30;;;16.11;50.76;102406.91;5031027;27;96922;-71
2021/06/08 04:11:33;;;;;;;;;;;13.30;62.40;;;16.11;50.38;102410.44;5030195;27;96962;-72
2021/06/08 04:14:03;;;;;;;;;;;13.30;62.40;;;16.13;50.62;102412.81;5049515;27;97052;-72
2021/06/08 04:16:33;;;;;;;;;;;13.30;62.40;;;16.25;49.67;102410.47;5028622;27;97929;-71
2021/06/08 04:19:03;;;;;;;;;;;13.30;62.30;;;16.26;50.08;102402.03;5045367;27;97612;-71
2021/06/08 04:21:31;;;;;;;;;;;13.40;62.40;;;16.32;49.95;102405.44;5030171;27;98047;-72
2021/06/08 04:24:03;;;;;;;;;;;13.40;62.40;;;16.35;49.48;102404.88;5047822;27;97918;-72
2021/06/08 04:26:34;;;;;;;;;;;13.40;62.30;;;16.37;49.47;102406.19;5032306;28;97976;-71
2021/06/08 04:29:04;;;;;;;;;;;13.40;62.30;;;16.41;50.25;102396.38;5030072;27;96883;-72
2021/06/08 04:31:33;;;;;;;;;;;13.50;62.30;;;16.56;49.09;102401.47;5032255;27;97245;-72
2021/06/08 04:34:06;;;;;;;;;;;13.50;62.30;;;16.63;49.02;102403.78;5047678;27;97591;-71
2021/06/08 04:36:35;;;;;;;;;;;13.50;62.60;;;16.66;50.05;102403.19;5032888;28;96834;-71
2021/06/08 04:39:04;;;;;;;;;;;13.60;62.30;;;16.71;48.89;102401.19;5033074;27;96862;-71
2021/06/08 04:41:33;;;;;;;;;;;13.60;62.30;;;16.70;49.69;102399.59;5030495;27;97009;-72
2021/06/08 04:44:05;;;;;;;;;;;13.60;62.20;;;16.65;49.10;102405.06;5047378;27;97104;-71
2021/06/08 04:46:38;;;;;;;;;;;13.60;62.20;;;16.70;50.25;102404.19;5046548;27;97928;-72
2021/06/08 04:49:06;;;;;;;;;;;13.60;62.90;;;16.77;49.57;102404.56;5031750;27;97194;-71
2021/06/08 04:51:35;;;;;;;;;;;13.70;62.30;;;16.78;48.99;102407.00;5027922;27;97632;-71
2021/06/08 04:54:03;;;;;;;;;;;13.70;62.30;;;16.87;49.59;102409.78;5030528;27;97820;-72
2021/06/08 04:56:33;;;;;;;;;;;13.80;62.30;;;16.92;49.86;102406.97;5030827;27;97327;-72
2021/06/08 04:59:04;;;;;;;;;;;13.80;62.20;;;16.94;49.96;102408.25;5045392;27;96857;-72
2021/06/08 05:01:38;;;;;;;;;;;13.90;62.30;;;16.86;50.24;102405.47;5029451;27;97598;-71
2021/06/08 05:04:11;;;;;;;;;;;13.90;62.20;;;16.87;50.44;102401.66;5045162;27;97473;-72
2021/06/08 05:06:45;;;;;;;;;;;13.90;62.20;;;16.87;49.97;102401.66;5031738;27;97728;-72
2021/06/08 05:09:18;;;;;;;;;;;14.00;62.20;;;16.92;50.35;102405.03;5014821;28;96859;-72
2021/06/08 05:11:53;;;;;;;;;;;14.00;62.20;;;16.93;49.93;102403.94;5031665;28;97201;-72
2021/06/08 05:14:29;;;;;;;;;;;14.00;62.20;;;17.00;50.51;102403.53;5029587;27;98348;-72
2021/06/08 05:16:59;;;;;;;;;;;14.10;62.20;;;17.06;49.66;102407.75;5028418;27;96829;-71
2021/06/08 05:19:27;;;;;;;;;;;14.10;62.30;;;17.11;50.30;102415.75;5031922;27;96814;-72
2021/06/08 05:21:57;;;;;;;;;;;14.10;62.20;;;17.12;50.08;102399.19;5008398;28;97069;-71
2021/06/08 05:24:25;;;;;;;;;;;14.20;62.20;;;17.18;49.57;102408.03;5030350;27;96967;-72
2021/06/08 05:26:56;;;;;;;;;;;14.20;62.30;;;17.27;50.24;102412.44;5029128;27;96777;-72
2021/06/08 05:29:25;;;;;;;;;;;14.30;62.40;;;17.43;49.96;102419.94;5031138;28;96912;-71
2021/06/08 05:31:56;;;;;;;;;;;14.30;62.40;;;17.62;49.53;102412.41;5030345;27;99006;-71
2021/06/08 05:34:25;;;;;;;;;;;14.40;62.60;;;17.89;49.82;102414.22;5028564;28;97211;-71
2021/06/08 05:36:53;;;;;;;;;;;14.60;62.90;;;18.22;49.65;102413.59;5032169;27;97611;-71
2021/06/08 05:39:21;;;;;;;;;;;14.80;63.20;;;18.50;49.63;102411.53;5031765;28;96958;-71
2021/06/08 05:41:49;;;;;;;;;;;15.10;63.30;;;18.89;49.84;102416.91;5031625;27;97763;-72
2021/06/08 05:44:20;;;;;;;;;;;15.40;63.50;;;19.21;50.01;102420.00;5025879;27;97206;-71
2021/06/08 05:46:49;;;;;;;;;;;15.70;63.60;;;19.60;49.85;102426.09;5032635;27;97146;-71
2021/06/08 05:49:19;;;;;;;;;;;16.10;63.70;;;20.08;49.78;102431.34;5029231;28;97561;-71
2021/06/08 05:51:48;;;;;;;;;;;16.50;63.80;;;20.40;50.44;102428.03;5048138;27;97529;-71
2021/06/08 05:54:17;;;;;;;;;;;16.90;63.90;;;20.77;50.70;102431.56;5044385;27;96926;-71
2021/06/08 05:56:46;;;;;;;;;;;17.30;64.00;;;21.13;50.88;102429.13;5029147;28;96832;-72
2021/06/08 05:59:17;;;;;;;;;;;17.70;64.10;;;21.54;50.46;102437.28;5040189;27;97018;-71
2021/06/08 06:01:48;;;;;;;;;;;18.20;64.00;;;22.03;50.51;102430.94;5032614;27;96816;-71
2021/06/08 06:04:17;;;;;;;;;;;18.70;64.00;;;22.68;50.24;102439.00;5046418;27;98180;-71
2021/06/08 06:06:47;;;;;;;;;;;19.20;64.00;;;23.29;50.05;102432.34;5034545;27;97943;-71
2021/06/08 06:09:16;;;;;;;;;;;19.70;63.80;;;23.49;50.52;102443.13;5032931;27;97043;-71
2021/06/08 06:11:48;;;;;;;;;;;20.10;63.40;;;23.55;50.52;102436.25;5032388;27;96985;-72
2021/06/08 06:14:20;;;;;;;;;;;20.30;63.20;;;23.96;50.04;102435.88;5046864;27;97501;-72
2021/06/08 06:16:53;;;;;;;;;;;20.50;63.20;;;24.46;49.78;102436.81;5033622;27;97731;-71
2021/06/08 06:19:23;;;;;;;;;;;20.80;63.50;;;25.09;49.32;102432.84;5046042;27;101132;-72
2021/06/08 06:21:52;;;;;;;;;;;21.20;63.60;;;25.70;49.28;102434.59;5032366;27;96907;-72
2021/06/08 06:24:21;;;;;;;;;;;21.70;63.50;;;26.18;48.84;102438.66;5032218;27;97958;-72
2021/06/08 06:26:50;;;;;;;;;;;22.10;63.20;;;26.50;49.23;102438.06;5029935;27;97500;-72
2021/06/08 06:29:19;;;;;;;;;;;22.50;63.20;;;27.01;48.80;102433.75;5031675;27;97272;-72
2021/06/08 06:31:50;;;;;;;;;;;23.00;63.20;;;27.44;48.71;102442.22;5034561;27;98529;-71
2021/06/08 06:34:21;;;;;;;;;;;23.40;63.10;;;27.85;48.59;102441.16;5033545;27;97462;-73
2021/06/08 06:36:49;;;;;;;;;;;23.80;63.00;;;28.25;48.81;102438.44;5045940;27;97644;-71
2021/06/08 06:39:22;;;;;;;;;;;24.20;63.00;;;28.62;48.67;102436.41;5033124;27;97300;-72
2021/06/08 06:41:54;;;;;;;;;;;24.50;62.90;;;29.05;48.40;102443.81;5031997;27;96992;-72
2021/06/08 06:44:24;;;;;;;;;;;24.90;62.90;;;29.61;47.86;102433.06;5034801;28;96910;-72
2021/06/08 06:46:53;;;;;;;;;;;25.20;62.80;;;29.80;48.29;102441.03;5032264;27;97705;-71
2021/06/08 06:49:22;;;;;;;;;;;25.60;62.80;;;30.16;48.15;102442.69;5032795;27;97067;-72
2021/06/08 06:51:50;;;;;;;;;;;25.90;62.70;;;30.57;48.15;102435.59;5035532;27;96999;-72
2021/06/08 06:54:19;;;;;;;;;;;26.30;62.70;;;30.84;47.94;102441.13;5032562;28;97884;-72
2021/06/08 06:56:47;;;;;;;;;;;26.60;62.60;;;31.17;47.97;102437.88;5031843;27;96799;-73
2021/06/08 06:59:16;;;;;;;;;;;27.00;62.70;;;31.38;48.02;102443.38;5046187;27;97631;-72
2021/06/08 07:01:47;;;;;;;;;;;27.30;62.30;;;31.42;48.27;102446.13;5034229;27;97103;-73
2021/06/08 07:04:18;;;;;;;;;;;27.40;62.20;;;31.55;48.16;102445.28;5033199;27;98400;-72
2021/06/08 07:06:46;;;;;;;;;;;27.50;62.20;;;31.71;48.23;102445.63;5016963;28;97602;-72
2021/06/08 07:09:14;;;;;;;;;;;27.60;62.30;;;31.81;48.32;102441.97;5035268;27;97145;-72
2021/06/08 07:11:44;;;;;;;;;;;27.80;62.40;;;32.05;48.44;102443.81;5030117;27;97083;-73
2021/06/08 07:14:13;;;;;;;;;;;27.90;62.50;;;32.26;48.35;102443.69;5049461;27;97822;-72
2021/06/08 07:16:41;;;;;;;;;;;28.10;62.50;;;32.52;48.06;102454.97;5049310;27;98250;-72
2021/06/08 07:19:13;;;;;;;;;;;28.30;62.40;;;32.51;48.45;102458.16;5035252;27;96867;-72
2021/06/08 07:21:43;;;;;;;;;;;28.50;62.20;;;32.61;48.25;102457.28;5031116;27;97060;-72
2021/06/08 07:24:12;;;;;;;;;;;28.70;62.20;;;32.78;48.62;102451.59;5048013;27;96907;-72
2021/06/08 07:26:41;;;;;;;;;;;28.90;62.20;;;33.07;47.92;102457.66;5031681;28;97205;-72
2021/06/08 07:29:13;;;;;;;;;;;29.10;62.20;;;33.18;48.30;102459.13;5031864;27;96776;-72
2021/06/08 07:31:52;;;;;;;;;;;29.30;62.20;;;33.35;48.08;102449.03;5032813;27;97070;-73
2021/06/08 07:34:26;;;;;;;;;;;29.40;62.00;;;33.55;47.88;102455.50;5047314;27;97889;-73
2021/06/08 07:36:58;;;;;;;;;;;29.60;62.00;;;33.70;47.91;102451.38;5046239;27;97185;-72
2021/06/08 07:39:31;;;;;;;;;;;29.70;61.90;;;33.76;48.13;102456.03;5033604;27;97272;-73
2021/06/08 07:42:10;;;;;;;;;;;29.90;61.90;;;33.86;48.24;102446.75;5033341;28;96828;-73
2021/06/08 07:44:46;;;;;;;;;;;30.00;61.70;;;33.92;48.09;102447.84;5032118;27;98108;-71
2021/06/08 07:47:18;;;;;;;;;;;30.00;61.80;;;33.97;47.72;102447.38;5044943;27;97822;-71
2021/06/08 07:49:50;;;;;;;;;;;30.10;61.60;;;33.90;48.26;102443.91;5029549;27;97151;-71
2021/06/08 07:52:20;;;;;;;;;;;30.10;61.70;;;34.00;47.85;102437.41;5043368;27;97361;-71
2021/06/08 07:54:49;;;;;;;;;;;30.20;61.80;;;34.17;47.97;102433.56;5031794;27;97792;-72
2021/06/08 07:57:19;;;;;;;;;;;30.30;62.40;;;34.36;47.57;102440.03;5030230;27;97819;-71
2021/06/08 07:59:49;;;;;;;;;;;30.40;61.80;;;34.47;47.53;102435.03;5031993;27;96624;-71
2021/06/08 08:02:19;;;;;;;;;;;30.50;61.60;;;34.59;47.46;102440.03;5030671;27;96786;-73
2021/06/08 08:04:50;;;;;;;;;;;30.60;61.60;;;34.76;47.17;102444.50;5047897;27;98249;-72
2021/06/08 08:07:22;;;;;;;;;;;30.80;61.60;;;34.77;47.37;102437.72;5032499;27;97774;-73
2021/06/08 08:09:52;;;;;;;;;;;30.80;61.20;;;34.54;47.85;102434.16;5034121;27;96995;-72
2021/06/08 08:12:22;;;;;;;;;;;30.80;61.10;;;34.53;47.62;102444.50;5032428;27;97147;-72
2021/06/08 08:14:52;;;;;;;;;;;30.70;61.20;;;34.51;47.89;102441.34;5032689;27;97333;-72
2021/06/08 08:17:24;;;;;;;;;;;30.70;61.20;;;34.51;47.46;102440.56;5031445;28;96597;-72
2021/06/08 08:19:56;;;;;;;;;;;30.70;61.10;;;34.58;47.23;102438.44;5029968;27;96872;-72
2021/06/08 08:22:26;;;;;;;;;;;30.70;61.10;;;34.65;47.32;102432.78;5032060;27;97805;-73
2021/06/08 08:24:54;;;;;;;;;;;30.70;61.10;;;34.88;46.65;102429.97;5031158;27;97200;-73
2021/06/08 08:27:23;;;;;;;;;;;30.90;61.10;;;34.91;47.19;102431.91;5031162;27;98612;-72
2021/06/08 08:29:51;;;;;;;;;;;31.00;61.00;;;35.00;46.67;102425.75;5031956;27;96766;-72
2021/06/08 08:32:22;;;;;;;;;;;31.00;60.80;;;35.02;46.72;102429.69;5049634;27;96878;-73
2021/06/08 08:34:50;;;;;;;;;;;31.00;60.90;;;35.09;46.98;102421.16;5048761;27;97904;-73
2021/06/08 08:37:19;;;;;;;;;;;31.10;60.90;;;34.98;46.82;102417.81;5030185;27;98887;-73
2021/06/08 08:39:49;;;;;;;;;;;31.20;60.60;;;34.53;47.44;102413.06;5041989;27;96834;-75
2021/06/08 08:42:21;;;;;;;;;;;31.10;60.50;;;34.47;47.83;102409.97;5047414;27;96879;-74
2021/06/08 08:44:49;;;;;;;;;;;30.90;60.70;;;34.60;47.10;102402.59;5046987;27;99915;-73
2021/06/08 08:47:18;;;;;;;;;;;30.90;60.80;;;34.81;47.13;102396.63;5046695;27;100057;-73
2021/06/08 08:49:46;;;;;;;;;;;30.90;60.80;;;34.92;46.56;102411.16;5035922;27;96887;-72
2021/06/08 08:52:21;;;;;;;;;;;31.10;60.60;;;34.99;46.72;102402.66;5036156;27;97392;-73
2021/06/08 08:54:51;;;;;;;;;;;31.10;60.30;;;35.13;46.59;102405.22;5032193;27;96850;-73
2021/06/08 08:57:19;;;;;;;;;;;31.20;60.40;;;35.24;45.93;102405.75;5025908;27;97865;-73
2021/06/08 08:59:48;;;;;;;;;;;31.30;60.20;;;35.22;46.10;102397.03;5031659;27;96923;-72
2021/06/08 09:02:36;;;;;;;;;;;31.20;59.90;;;35.08;46.17;102391.72;5029254;27;96827;-72
2021/06/08 09:05:06;;;;;;;;;;;31.30;60.00;;;35.01;46.15;102391.88;5029219;28;98044;-73
2021/06/08 09:07:35;;;;;;;;;;;31.20;59.90;;;35.02;46.53;102390.66;5027128;27;97936;-72
2021/06/08 09:10:13;;;;;;;;;;;31.20;60.10;;;35.19;46.12;102378.41;5031658;28;96803;-72
2021/06/08 09:12:41;;;;;;;;;;;31.30;60.10;;;35.45;45.65;102385.00;5047171;27;96923;-72
2021/06/08 09:15:10;;;;;;;;;;;31.40;60.00;;;35.54;45.41;102383.19;5030235;28;97840;-72
2021/06/08 09:17:39;;;;;;;;;;;31.50;59.90;;;35.71;45.22;102378.44;5031290;27;100099;-73
2021/06/08 09:20:11;;;;;;;;;;;31.50;59.70;;;35.79;45.07;102379.84;5032593;27;97542;-73
2021/06/08 09:22:52;;;;;;;;;;;31.60;59.60;;;35.89;44.83;102374.00;5048738;27;96872;-74
2021/06/08 09:25:47;;;;;;;;;;;31.70;59.60;;;35.91;44.84;102373.59;5031105;27;97244;-74
2021/06/08 09:28:23;;;;;;;;;;;31.80;59.30;;;35.78;44.91;102375.50;5031312;27;97212;-74
2021/06/08 09:30:58;;;;;;;;;;;31.80;59.20;;;35.77;44.95;102374.72;5030121;28;97314;-74
2021/06/08 09:33:31;;;;;;;;;;;31.70;59.10;;;35.65;45.02;102372.59;5040119;27;97151;-76
2021/06/08 09:36:03;;;;;;;;;;;31.70;59.00;;;35.64;44.90;102370.25;5042356;27;96748;-75
2021/06/08 09:38:45;;;;;;;;;;;31.70;59.00;;;35.76;44.87;102375.94;5043226;27;97766;-76
2021/06/08 09:41:25;;;;;;;;;;;31.80;59.00;;;35.82;44.46;102376.19;5030586;27;96812;-75
2021/06/08 09:43:57;;;;;;;;;;;31.80;58.70;;;35.75;44.51;102370.78;5027217;28;97851;-76
2021/06/08 09:46:43;;;;;;;;;;;31.80;58.60;;;35.43;44.67;102376.28;5031569;28;96906;-74
2021/06/08 09:49:13;;;;;;;;;;;31.70;58.40;;;35.32;44.64;102367.38;5030224;28;97766;-73
2021/06/08 09:51:54;;;;;;;;;;;31.50;58.40;;;34.99;45.22;102374.78;5044099;27;97049;-74
2021/06/08 09:54:34;;;;;;;;;;;31.30;58.60;;;34.98;45.05;102370.44;5032286;27;96750;-76
2021/06/08 09:57:16;;;;;;;;;;;31.20;58.60;;;35.01;44.70;102366.78;5028365;27;97781;-73
2021/06/08 09:59:48;;;;;;;;;;;31.10;58.60;;;34.99;44.76;102363.66;5028009;27;97286;-74
2021/06/08 10:02:23;;;;;;;;;;;31.10;58.70;;;35.06;44.63;102362.72;5032138;27;96853;-73
2021/06/08 10:04:52;;;;;;;;;;;31.10;58.50;;;35.04;44.67;102370.72;5044365;27;97332;-74
2021/06/08 10:07:31;;;;;;;;;;;31.10;58.50;;;35.16;44.35;102361.72;5041856;27;98246;-74
2021/06/08 10:10:07;;;;;;;;;;;31.20;58.20;;;35.35;43.71;102364.50;5026444;27;96827;-73
2021/06/08 10:12:54;;;;;;;;;;;31.20;58.20;;;35.58;43.26;102361.56;5029306;28;97035;-74
2021/06/08 10:15:23;;;;;;;;;;;31.40;58.10;;;35.75;42.73;102349.25;5020241;27;99069;-74
2021/06/08 10:18:03;;;;;;;;;;;31.50;58.00;;;36.02;42.71;102356.13;5028295;27;97885;-73
2021/06/08 10:20:35;;;;;;;;;;;31.60;57.80;;;36.13;42.28;102353.88;5026594;27;97632;-73
2021/06/08 10:23:22;;;;;;;;;;;31.80;57.60;;;36.22;42.43;102353.25;5032129;27;96831;-74
2021/06/08 10:25:54;;;;;;;;;;;31.90;57.40;;;35.98;42.68;102354.63;5033133;27;99413;-74
2021/06/08 10:28:25;;;;;;;;;;;31.90;57.30;;;35.81;42.93;102352.28;5027260;27;96933;-74
2021/06/08 10:30:55;;;;;;;;;;;31.80;57.20;;;35.63;43.09;102349.94;5028064;27;97693;-75
2021/06/08 10:33:44;;;;;;;;;;;31.80;57.20;;;35.72;43.03;102352.13;5029967;28;98203;-74
2021/06/08 10:36:19;;;;;;;;;;;31.80;57.10;;;35.50;43.71;102349.03;5030591;27;96665;-75
2021/06/08 10:38:48;;;;;;;;;;;31.80;56.90;;;35.48;43.27;102347.88;5030437;27;98001;-74
2021/06/08 10:41:16;;;;;;;;;;;31.70;57.10;;;35.62;42.99;102342.78;5030856;27;98073;-74
2021/06/08 10:43:46;;;;;;;;;;;31.70;57.10;;;35.79;42.64;102349.94;5044780;27;96863;-74
2021/06/08 10:46:35;;;;;;;;;;;31.80;57.00;;;35.69;42.62;102339.81;5028610;28;97279;-74
2021/06/08 10:49:06;;;;;;;;;;;31.80;56.80;;;35.58;43.02;102341.25;5031782;27;97855;-73
2021/06/08 10:51:36;;;;;;;;;;;31.80;56.60;;;35.42;43.01;102339.22;5046848;27;97216;-74
2021/06/08 10:54:18;;;;;;;;;;;31.60;56.70;;;35.35;42.78;102342.19;5032976;27;97132;-74
2021/06/08 10:56:58;;;;;;;;;;;31.50;56.70;;;34.95;43.16;102346.22;5033096;27;96990;-73
2021/06/08 10:59:38;;;;;;;;;;;31.30;56.70;;;34.50;43.80;102336.72;5050391;27;99199;-75
2021/06/08 11:02:07;;;;;;;;;;;31.10;56.80;;;34.33;43.91;102337.88;5030655;27;96748;-75
2021/06/08 11:04:51;;;;;;;;;;;30.90;57.20;;;34.39;43.54;102341.72;5033032;27;98426;-75
2021/06/08 11:07:52;;;;;;;;;;;30.80;57.20;;;34.51;43.67;102337.53;5042954;27;98401;-75
2021/06/08 11:11:03;;;;;;;;;;;30.70;57.10;;;34.76;43.06;102347.00;5033261;27;97913;-75
2021/06/08 11:13:54;;;;;;;;;;;30.80;57.20;;;34.92;42.97;102344.28;5027840;27;96942;-76
2021/06/08 11:16:35;;;;;;;;;;;30.90;57.10;;;34.95;42.65;102337.84;5050210;27;98943;-75
2021/06/08 11:19:04;;;;;;;;;;;31.00;56.90;;;34.97;42.84;102340.19;5031173;27;96849;-76
2021/06/08 11:21:34;;;;;;;;;;;31.00;56.90;;;34.99;43.02;102341.34;5036827;27;96754;-76
2021/06/08 11:24:34;;;;;;;;;;;31.10;56.90;;;35.05;42.77;102341.66;5035564;27;97672;-75
2021/06/08 11:27:05;;;;;;;;;;;31.10;56.70;;;34.74;43.55;102338.28;5035323;27;97803;-76
2021/06/08 11:29:49;;;;;;;;;;;31.10;56.50;;;34.44;43.36;102343.25;5034590;27;97451;-75